createdAt,value
2023-01-07T00:00:26.346Z,81.78
2023-01-07T00:03:16.992Z,81.58
2023-01-07T00:05:47.322Z,81.66
2023-01-07T00:08:17.454Z,81.79
2023-01-07T00:10:47.585Z,81.54
2023-01-07T00:13:18.099Z,81.59
2023-01-07T00:15:48.554Z,81.80
2023-01-07T00:18:19.116Z,81.89
2023-01-07T00:20:49.515Z,81.99
2023-01-07T00:23:19.615Z,81.87
2023-01-07T00:25:50.080Z,82.02
2023-01-07T00:28:20.492Z,82.01
2023-01-07T00:30:51.224Z,82.13
2023-01-07T00:33:22.320Z,82.09
2023-01-07T00:36:00.396Z,82.11
2023-01-07T00:38:31.177Z,82.15
2023-01-07T00:41:01.564Z,82.31
2023-01-07T00:43:32.139Z,82.43
2023-01-07T00:46:02.373Z,82.47
2023-01-07T00:48:32.596Z,82.53
2023-01-07T00:51:03.051Z,82.71
2023-01-07T00:53:33.687Z,82.79
2023-01-07T00:56:04.436Z,82.77
2023-01-07T00:58:35.247Z,82.68
2023-01-07T01:01:07.221Z,82.63
2023-01-07T01:03:38.691Z,82.41
2023-01-07T01:06:13.321Z,82.33
2023-01-07T01:08:44.769Z,82.35
2023-01-07T01:11:16.550Z,82.36
2023-01-07T01:13:47.443Z,82.53
2023-01-07T01:16:18.894Z,82.45
2023-01-07T01:18:49.256Z,82.50
2023-01-07T01:21:19.620Z,82.42
2023-01-07T01:23:49.700Z,82.38
2023-01-07T01:26:20.903Z,82.43
2023-01-07T01:28:51.291Z,82.38
2023-01-07T01:31:22.668Z,82.48
2023-01-07T01:33:55.819Z,82.52
2023-01-07T01:36:26.235Z,82.52
2023-01-07T01:38:58.660Z,82.57
2023-01-07T01:41:30.247Z,82.56
2023-01-07T01:44:01.706Z,82.58
2023-01-07T01:46:38.740Z,82.37
2023-01-07T01:49:20.605Z,82.53
2023-01-07T01:51:56.940Z,82.60
2023-01-07T01:54:29.195Z,82.69
2023-01-07T01:57:03.303Z,82.58
2023-01-07T01:59:38.516Z,82.51
2023-01-07T02:02:11.294Z,82.65
2023-01-07T02:04:42.183Z,82.56
2023-01-07T02:07:15.547Z,82.47
2023-01-07T02:09:57.204Z,82.51
2023-01-07T02:12:40.320Z,82.41
2023-01-07T02:15:13.603Z,82.63
2023-01-07T02:18:08.670Z,82.72
2023-01-07T02:20:53.351Z,82.73
2023-01-07T02:24:06.502Z,82.59
2023-01-07T02:27:10.746Z,82.49
2023-01-07T02:30:09.448Z,82.41
2023-01-07T02:32:57.656Z,82.55
2023-01-07T02:35:40.382Z,82.71
2023-01-07T02:38:19.234Z,82.53
2023-01-07T02:40:59.376Z,82.47
2023-01-07T02:43:38.214Z,82.46
2023-01-07T02:46:17.217Z,82.39
2023-01-07T02:48:47.667Z,82.31
2023-01-07T02:51:17.934Z,82.37
2023-01-07T02:53:49.913Z,82.37
2023-01-07T02:56:37.340Z,82.56
2023-01-07T02:59:23.248Z,82.69
2023-01-07T03:02:19.296Z,82.58
2023-01-07T03:05:16.608Z,82.52
2023-01-07T03:08:08.412Z,82.53
2023-01-07T03:10:46.374Z,82.60
2023-01-07T03:13:23.764Z,82.65
2023-01-07T03:16:03.676Z,82.64
2023-01-07T03:18:38.131Z,82.65
2023-01-07T03:21:12.443Z,82.50
2023-01-07T03:23:48.374Z,82.40
2023-01-07T03:26:23.950Z,82.12
2023-01-07T03:28:56.405Z,82.14
2023-01-07T03:31:28.528Z,82.39
2023-01-07T03:34:02.574Z,82.25
2023-01-07T03:36:38.253Z,82.36
2023-01-07T03:39:10.860Z,82.50
2023-01-07T03:42:00.079Z,82.78
2023-01-07T03:44:31.526Z,82.89
2023-01-07T03:47:02.050Z,82.75
2023-01-07T03:49:33.016Z,82.67
2023-01-07T03:52:03.432Z,82.95
2023-01-07T03:54:35.056Z,82.90
2023-01-07T03:57:06.019Z,82.92
2023-01-07T03:59:37.339Z,83.07
2023-01-07T04:02:08.248Z,83.00
2023-01-07T04:04:38.848Z,83.15
2023-01-07T04:07:09.264Z,83.29
2023-01-07T04:09:39.174Z,83.41
2023-01-07T04:12:10.740Z,83.55
2023-01-07T04:14:41.386Z,83.38
2023-01-07T04:17:11.842Z,83.51
2023-01-07T04:19:41.982Z,83.48
2023-01-07T04:22:13.137Z,83.32
2023-01-07T04:24:43.501Z,83.21
2023-01-07T04:27:14.402Z,83.33
2023-01-07T04:29:45.163Z,83.31
2023-01-07T04:32:15.625Z,83.14
2023-01-07T04:34:46.086Z,83.05
2023-01-07T04:37:16.718Z,83.11
2023-01-07T04:39:46.941Z,82.99
2023-01-07T04:42:17.457Z,83.00
2023-01-07T04:44:47.548Z,83.14
2023-01-07T04:47:18.395Z,83.02
2023-01-07T04:49:49.060Z,82.96
2023-01-07T04:52:19.460Z,83.09
2023-01-07T04:54:49.663Z,83.21
2023-01-07T04:57:20.158Z,83.09
2023-01-07T04:59:50.985Z,82.96
2023-01-07T05:02:21.572Z,83.06
2023-01-07T05:04:52.184Z,83.01
2023-01-07T05:07:22.721Z,83.11
2023-01-07T05:09:53.549Z,83.29
2023-01-07T05:12:23.872Z,83.49
2023-01-07T05:14:54.351Z,83.52
2023-01-07T05:17:24.691Z,83.57
2023-01-07T05:19:55.429Z,83.69
2023-01-07T05:22:25.613Z,83.54
2023-01-07T05:24:56.433Z,83.63
2023-01-07T05:27:27.308Z,83.53
2023-01-07T05:29:57.872Z,83.43
2023-01-07T05:32:28.272Z,83.49
2023-01-07T05:34:59.140Z,83.58
2023-01-07T05:37:29.701Z,83.47
2023-01-07T05:40:00.644Z,83.30
2023-01-07T05:42:30.921Z,83.30
2023-01-07T05:45:01.422Z,83.30
2023-01-07T05:47:31.515Z,83.11
2023-01-07T05:50:01.387Z,83.04
2023-01-07T05:52:31.723Z,83.19
2023-01-07T05:55:02.092Z,83.33
2023-01-07T05:57:33.109Z,83.30
2023-01-07T06:00:04.402Z,83.31
2023-01-07T06:02:41.702Z,83.21
2023-01-07T06:05:12.233Z,83.14
2023-01-07T06:07:42.471Z,83.02
2023-01-07T06:10:12.758Z,83.16
2023-01-07T06:12:43.051Z,83.14
2023-01-07T06:15:14.090Z,83.25
2023-01-07T06:17:44.370Z,83.30
2023-01-07T06:20:15.341Z,83.18
2023-01-07T06:22:46.214Z,83.15
2023-01-07T06:25:17.116Z,83.07
2023-01-07T06:27:47.257Z,82.84
2023-01-07T06:30:17.572Z,82.92
2023-01-07T06:32:47.941Z,83.23
2023-01-07T06:35:18.129Z,83.36
2023-01-07T06:37:48.025Z,83.46
2023-01-07T06:40:18.776Z,83.28
2023-01-07T06:42:49.344Z,83.32
2023-01-07T06:45:19.827Z,83.17
2023-01-07T06:47:49.872Z,83.19
2023-01-07T06:50:20.085Z,83.07
2023-01-07T06:52:50.870Z,83.15
2023-01-07T06:55:21.168Z,83.20
2023-01-07T06:57:51.297Z,83.17
2023-01-07T07:00:22.297Z,83.00
2023-01-07T07:02:52.497Z,82.86
2023-01-07T07:05:23.104Z,82.79
2023-01-07T07:07:53.346Z,82.86
2023-01-07T07:10:24.403Z,82.56
2023-01-07T07:12:54.723Z,82.33
2023-01-07T07:15:25.038Z,82.51
2023-01-07T07:17:55.107Z,82.57
2023-01-07T07:20:25.497Z,82.76
2023-01-07T07:22:56.164Z,82.83
2023-01-07T07:25:26.781Z,83.02
2023-01-07T07:27:57.224Z,83.20
2023-01-07T07:30:46.188Z,83.46
2023-01-07T07:33:19.236Z,83.34
2023-01-07T07:35:49.724Z,83.30
2023-01-07T07:38:20.179Z,83.33
2023-01-07T07:40:50.572Z,83.17
2023-01-07T07:43:20.799Z,83.28
2023-01-07T07:45:51.279Z,83.39
2023-01-07T07:48:21.602Z,83.35
2023-01-07T07:50:53.124Z,83.36
2023-01-07T07:53:23.578Z,83.28
2023-01-07T07:55:53.998Z,83.25
2023-01-07T07:58:24.655Z,83.01
2023-01-07T08:00:55.318Z,83.12
2023-01-07T08:03:25.969Z,83.24
2023-01-07T08:05:56.214Z,83.26
2023-01-07T08:08:26.611Z,83.19
2023-01-07T08:10:57.373Z,83.24
2023-01-07T08:13:28.168Z,83.34
2023-01-07T08:15:58.701Z,83.35
2023-01-07T08:18:28.998Z,83.48
2023-01-07T08:20:59.312Z,83.36
2023-01-07T08:23:30.822Z,83.25
2023-01-07T08:26:02.584Z,83.33
2023-01-07T08:28:33.269Z,83.49
2023-01-07T08:31:04.199Z,83.37
2023-01-07T08:33:37.226Z,83.41
2023-01-07T08:36:22.131Z,83.21
2023-01-07T08:38:55.115Z,83.22
2023-01-07T08:41:27.003Z,83.32
2023-01-07T08:43:57.470Z,83.49
2023-01-07T08:46:27.818Z,83.40
2023-01-07T08:48:58.071Z,83.39
2023-01-07T08:51:28.524Z,83.23
2023-01-07T08:53:58.707Z,83.11
2023-01-07T08:56:29.097Z,82.98
2023-01-07T08:58:59.971Z,82.95
2023-01-07T09:01:30.770Z,83.12
2023-01-07T09:04:01.347Z,82.82
2023-01-07T09:06:31.391Z,82.76
2023-01-07T09:09:01.559Z,82.00
2023-01-07T09:11:32.309Z,82.04
2023-01-07T09:14:02.578Z,81.75
2023-01-07T09:16:32.973Z,81.44
2023-01-07T09:19:03.336Z,81.13
2023-01-07T09:21:33.667Z,80.98
2023-01-07T09:24:03.967Z,81.00
2023-01-07T09:26:34.220Z,81.01
2023-01-07T09:29:04.979Z,80.91
2023-01-07T09:31:35.622Z,80.80
2023-01-07T09:34:06.644Z,80.57
2023-01-07T09:36:36.743Z,80.67
2023-01-07T09:39:07.057Z,80.83
2023-01-07T09:41:45.795Z,80.66
2023-01-07T09:44:19.902Z,80.79
2023-01-07T09:46:52.421Z,80.70
2023-01-07T09:49:26.609Z,80.68
2023-01-07T09:52:02.361Z,80.61
2023-01-07T09:54:36.903Z,80.84
2023-01-07T09:57:09.201Z,80.95
2023-01-07T09:59:39.480Z,80.89
2023-01-07T10:02:28.808Z,80.69
2023-01-07T10:05:17.800Z,80.32
2023-01-07T10:07:54.000Z,80.40
2023-01-07T10:10:52.740Z,80.60
2023-01-07T10:13:44.609Z,80.49
2023-01-07T10:16:24.332Z,80.13
2023-01-07T10:19:03.151Z,80.09
2023-01-07T10:21:37.883Z,80.09
2023-01-07T10:24:16.920Z,80.60
2023-01-07T10:26:51.507Z,80.72
2023-01-07T10:29:30.280Z,80.86
2023-01-07T10:32:07.538Z,80.84
2023-01-07T10:34:44.466Z,80.53
2023-01-07T10:37:23.245Z,80.37
2023-01-07T10:40:01.120Z,80.46
2023-01-07T10:42:37.865Z,80.15
2023-01-07T10:45:22.726Z,79.59
2023-01-07T10:48:23.996Z,79.53
2023-01-07T10:51:07.267Z,79.93
2023-01-07T10:53:51.784Z,79.62
2023-01-07T10:56:28.685Z,78.90
2023-01-07T10:58:59.826Z,78.63
2023-01-07T11:01:35.348Z,77.54
2023-01-07T11:04:12.214Z,77.91
2023-01-07T11:06:49.468Z,78.10
2023-01-07T11:09:24.106Z,78.55
2023-01-07T11:11:55.889Z,78.77
2023-01-07T11:14:31.018Z,78.83
2023-01-07T11:17:08.054Z,77.78
2023-01-07T11:19:48.647Z,77.43
2023-01-07T11:22:33.751Z,77.78
2023-01-07T11:25:29.340Z,77.49
2023-01-07T11:28:02.219Z,77.38
2023-01-07T11:30:33.825Z,77.78
2023-01-07T11:33:05.836Z,77.66
2023-01-07T11:35:37.198Z,77.65
2023-01-07T11:38:27.917Z,77.78
2023-01-07T11:41:00.905Z,77.46
2023-01-07T11:43:34.353Z,76.70
2023-01-07T11:46:21.134Z,76.40
2023-01-07T11:48:57.847Z,76.41
2023-01-07T11:51:38.602Z,76.25
2023-01-07T11:54:21.273Z,76.36
2023-01-07T11:56:54.194Z,76.89
2023-01-07T11:59:30.520Z,76.70
2023-01-07T12:02:01.096Z,77.94
2023-01-07T12:04:33.263Z,79.65
2023-01-07T12:07:07.967Z,79.66
2023-01-07T12:09:40.121Z,78.87
2023-01-07T12:12:41.370Z,77.71
2023-01-07T12:15:21.065Z,74.27
2023-01-07T12:18:17.456Z,73.47
2023-01-07T12:21:35.437Z,73.91
2023-01-07T12:24:27.988Z,72.39
2023-01-07T12:27:04.003Z,71.78
2023-01-07T12:29:45.947Z,71.52
2023-01-07T12:32:30.185Z,71.31
2023-01-07T12:35:14.313Z,71.35
2023-01-07T12:37:51.162Z,71.92
2023-01-07T12:40:31.180Z,72.30
2023-01-07T12:43:10.349Z,72.77
2023-01-07T12:45:45.024Z,73.27
2023-01-07T12:48:21.693Z,73.86
2023-01-07T12:50:55.887Z,74.32
2023-01-07T12:53:35.080Z,74.78
2023-01-07T12:56:14.271Z,75.16
2023-01-07T12:58:48.012Z,75.24
2023-01-07T13:01:26.989Z,75.16
2023-01-07T13:04:09.365Z,75.26
2023-01-07T13:06:46.914Z,75.34
2023-01-07T13:09:29.918Z,75.70
2023-01-07T13:12:42.177Z,76.04
2023-01-07T13:15:20.386Z,75.81
2023-01-07T13:17:54.016Z,75.87
2023-01-07T13:20:44.907Z,75.73
2023-01-07T13:23:24.594Z,75.64
2023-01-07T13:26:14.915Z,75.15
2023-01-07T13:29:05.198Z,75.23
2023-01-07T13:31:55.011Z,75.18
2023-01-07T13:34:37.389Z,75.27
2023-01-07T13:37:24.474Z,75.46
2023-01-07T13:40:16.841Z,75.69
2023-01-07T13:42:53.399Z,76.01
2023-01-07T13:45:27.029Z,76.27
2023-01-07T13:47:59.277Z,76.61
2023-01-07T13:50:35.801Z,76.38
2023-01-07T13:53:08.271Z,76.55
2023-01-07T13:55:41.417Z,76.76
2023-01-07T13:58:44.266Z,77.25
2023-01-07T14:01:15.862Z,77.50
2023-01-07T14:03:50.581Z,77.29
2023-01-07T14:06:38.945Z,77.36
2023-01-07T14:09:16.070Z,77.58
2023-01-07T14:12:01.580Z,78.10
2023-01-07T14:14:42.900Z,78.32
2023-01-07T14:17:21.397Z,78.38
2023-01-07T14:20:00.930Z,78.58
2023-01-07T14:22:39.063Z,78.66
2023-01-07T14:25:40.900Z,78.73
2023-01-07T14:28:47.776Z,78.99
2023-01-07T14:31:26.274Z,78.90
2023-01-07T14:33:59.353Z,78.93
2023-01-07T14:37:14.569Z,79.16
2023-01-07T14:39:46.219Z,79.32
2023-01-07T14:42:42.315Z,79.32
2023-01-07T14:45:47.390Z,79.25
2023-01-07T14:48:35.896Z,79.48
2023-01-07T14:51:12.620Z,79.41
2023-01-07T14:54:02.238Z,79.44
2023-01-07T14:56:51.210Z,79.41
2023-01-07T14:59:45.545Z,79.36
2023-01-07T15:02:48.751Z,79.36
2023-01-07T15:06:01.456Z,79.30
2023-01-07T15:09:04.341Z,79.18
2023-01-07T15:11:55.066Z,79.55
2023-01-07T15:14:48.338Z,79.50
2023-01-07T15:17:19.162Z,79.45
2023-01-07T15:19:49.726Z,79.41
2023-01-07T15:22:35.769Z,79.19
2023-01-07T15:25:18.115Z,79.32
2023-01-07T15:27:56.017Z,79.42
2023-01-07T15:30:40.847Z,79.54
2023-01-07T15:33:46.714Z,79.67
2023-01-07T15:36:18.141Z,79.72
2023-01-07T15:38:52.458Z,79.55
2023-01-07T15:41:32.520Z,79.57
2023-01-07T15:44:05.113Z,79.50
2023-01-07T15:46:39.792Z,79.45
2023-01-07T15:49:18.944Z,79.27
2023-01-07T15:51:50.574Z,79.10
2023-01-07T15:54:42.266Z,78.99
2023-01-07T15:57:20.069Z,79.00
2023-01-07T15:59:52.339Z,79.11
2023-01-07T16:02:27.207Z,79.08
2023-01-07T16:05:01.146Z,79.13
2023-01-07T16:07:34.513Z,79.21
2023-01-07T16:10:06.951Z,79.16
2023-01-07T16:12:38.721Z,79.15
2023-01-07T16:15:30.620Z,79.10
2023-01-07T16:18:03.109Z,79.03
2023-01-07T16:20:36.250Z,79.07
2023-01-07T16:23:20.793Z,79.01
2023-01-07T16:25:55.359Z,78.88
2023-01-07T16:28:29.989Z,78.92
2023-01-07T16:31:01.115Z,78.95
2023-01-07T16:33:35.239Z,78.86
2023-01-07T16:36:11.733Z,78.84
2023-01-07T16:38:44.076Z,78.76
2023-01-07T16:41:23.213Z,78.67
2023-01-07T16:43:55.445Z,78.51
2023-01-07T16:46:27.948Z,78.61
2023-01-07T16:49:27.456Z,78.70
2023-01-07T16:52:07.103Z,78.60
2023-01-07T16:54:39.788Z,78.72
2023-01-07T16:57:32.975Z,78.66
2023-01-07T17:00:06.422Z,78.64
2023-01-07T17:02:39.876Z,78.82
2023-01-07T17:05:18.968Z,78.88
2023-01-07T17:07:52.610Z,79.17
2023-01-07T17:10:27.458Z,79.48
2023-01-07T17:13:00.806Z,79.68
2023-01-07T17:15:39.494Z,79.58
2023-01-07T17:18:29.705Z,79.71
2023-01-07T17:21:01.000Z,79.70
2023-01-07T17:23:42.064Z,79.81
2023-01-07T17:26:21.546Z,79.59
2023-01-07T17:28:54.257Z,79.65
2023-01-07T17:31:25.199Z,79.60
2023-01-07T17:33:56.301Z,79.74
2023-01-07T17:36:28.006Z,79.70
2023-01-07T17:38:58.759Z,79.88
2023-01-07T17:41:48.054Z,79.94
2023-01-07T17:44:18.911Z,79.95
2023-01-07T17:46:49.480Z,79.95
2023-01-07T17:49:20.660Z,80.07
2023-01-07T17:51:53.193Z,80.16
2023-01-07T17:54:27.176Z,80.14
2023-01-07T17:56:58.729Z,80.19
2023-01-07T17:59:31.463Z,80.19
2023-01-07T18:02:02.322Z,80.25
2023-01-07T18:04:33.245Z,80.34
2023-01-07T18:07:03.597Z,80.24
2023-01-07T18:09:33.877Z,80.34
2023-01-07T18:12:22.321Z,80.36
2023-01-07T18:14:55.206Z,80.10
2023-01-07T18:17:25.572Z,79.94
2023-01-07T18:19:56.504Z,79.88
2023-01-07T18:22:27.113Z,80.00
2023-01-07T18:24:57.474Z,80.12
2023-01-07T18:27:28.149Z,80.17
2023-01-07T18:29:58.358Z,80.24
2023-01-07T18:32:28.585Z,80.47
2023-01-07T18:34:58.755Z,80.50
2023-01-07T18:37:28.817Z,80.39
2023-01-07T18:40:01.891Z,80.36
2023-01-07T18:42:33.956Z,80.41
2023-01-07T18:45:05.983Z,80.53
2023-01-07T18:47:36.611Z,80.51
2023-01-07T18:50:08.574Z,80.42
2023-01-07T18:52:40.148Z,80.58
2023-01-07T18:55:11.662Z,80.49
2023-01-07T18:57:41.985Z,80.25
2023-01-07T19:00:14.808Z,80.25
2023-01-07T19:02:45.507Z,80.36
2023-01-07T19:05:16.188Z,80.49
2023-01-07T19:07:46.246Z,80.64
2023-01-07T19:10:16.474Z,80.80
2023-01-07T19:12:46.695Z,81.02
2023-01-07T19:15:17.170Z,81.06
2023-01-07T19:17:49.402Z,80.93
2023-01-07T19:20:19.909Z,81.04
2023-01-07T19:22:50.584Z,81.19
2023-01-07T19:25:21.269Z,81.27
2023-01-07T19:27:51.830Z,81.13
2023-01-07T19:30:22.177Z,81.23
2023-01-07T19:32:56.276Z,81.10
2023-01-07T19:35:26.549Z,81.14
2023-01-07T19:37:57.259Z,81.06
2023-01-07T19:40:27.197Z,81.08
2023-01-07T19:42:57.590Z,81.05
2023-01-07T19:45:28.057Z,81.10
2023-01-07T19:47:58.844Z,81.00
2023-01-07T19:50:29.350Z,81.05
2023-01-07T19:53:00.374Z,81.03
2023-01-07T19:55:31.066Z,81.06
2023-01-07T19:58:02.928Z,81.06
2023-01-07T20:00:33.482Z,81.09
2023-01-07T20:03:05.489Z,81.44
2023-01-07T20:05:35.850Z,81.59
2023-01-07T20:08:07.145Z,81.86
2023-01-07T20:10:37.411Z,81.92
2023-01-07T20:13:07.772Z,81.97
2023-01-07T20:15:37.912Z,82.01
2023-01-07T20:18:08.204Z,82.06
2023-01-07T20:20:38.867Z,82.04
2023-01-07T20:23:09.017Z,81.88
2023-01-07T20:25:43.315Z,81.88
2023-01-07T20:28:13.809Z,81.85
2023-01-07T20:30:44.742Z,82.24
2023-01-07T20:33:15.852Z,82.28
2023-01-07T20:35:46.602Z,82.34
2023-01-07T20:38:17.299Z,82.43
2023-01-07T20:40:47.419Z,82.69
2023-01-07T20:43:19.220Z,82.77
2023-01-07T20:45:49.533Z,82.77
2023-01-07T20:48:20.106Z,82.78
2023-01-07T20:50:50.575Z,82.77
2023-01-07T20:53:20.858Z,82.87
2023-01-07T20:55:57.501Z,82.79
2023-01-07T20:58:27.716Z,82.84
2023-01-07T21:00:58.127Z,82.68
2023-01-07T21:03:28.095Z,82.85
2023-01-07T21:05:58.733Z,82.85
2023-01-07T21:08:29.205Z,82.69
2023-01-07T21:10:59.921Z,82.78
2023-01-07T21:13:30.371Z,82.70
2023-01-07T21:16:03.682Z,82.79
2023-01-07T21:18:34.689Z,82.68
2023-01-07T21:21:10.835Z,82.71
2023-01-07T21:23:41.871Z,82.78
2023-01-07T21:26:13.099Z,82.68
2023-01-07T21:28:44.404Z,82.69
2023-01-07T21:31:16.543Z,82.80
2023-01-07T21:33:47.081Z,82.72
2023-01-07T21:36:19.435Z,82.54
2023-01-07T21:38:54.327Z,82.62
2023-01-07T21:41:25.505Z,82.72
2023-01-07T21:43:56.132Z,82.72
2023-01-07T21:46:26.523Z,82.91
2023-01-07T21:48:57.234Z,83.01
2023-01-07T21:51:29.663Z,82.99
2023-01-07T21:54:00.230Z,82.86
2023-01-07T21:56:32.489Z,82.99
2023-01-07T21:59:03.214Z,82.97
2023-01-07T22:01:34.054Z,83.09
2023-01-07T22:04:04.807Z,83.26
2023-01-07T22:06:36.967Z,83.11
2023-01-07T22:09:09.193Z,83.15
2023-01-07T22:11:41.050Z,83.11
2023-01-07T22:14:14.066Z,83.06
2023-01-07T22:16:45.861Z,83.03
2023-01-07T22:19:18.186Z,83.07
2023-01-07T22:21:48.372Z,83.22
2023-01-07T22:24:19.726Z,83.00
2023-01-07T22:26:50.378Z,83.22
2023-01-07T22:29:20.771Z,83.03
2023-01-07T22:31:52.399Z,83.13
2023-01-07T22:34:23.347Z,83.24
2023-01-07T22:36:59.803Z,83.27
2023-01-07T22:39:36.585Z,83.40
2023-01-07T22:42:11.998Z,83.56
2023-01-07T22:44:47.100Z,83.50
2023-01-07T22:47:21.354Z,83.61
2023-01-07T22:49:53.116Z,83.48
2023-01-07T22:52:23.816Z,83.55
2023-01-07T22:54:54.413Z,83.36
2023-01-07T22:57:25.052Z,83.32
2023-01-07T22:59:55.398Z,83.36
2023-01-07T23:02:25.845Z,83.19
2023-01-07T23:04:56.633Z,83.27
2023-01-07T23:07:27.188Z,83.21
2023-01-07T23:09:57.525Z,83.06
2023-01-07T23:12:27.625Z,83.26
2023-01-07T23:14:57.940Z,83.19
2023-01-07T23:17:28.515Z,83.37
2023-01-07T23:19:58.953Z,83.35
2023-01-07T23:22:29.040Z,83.24
2023-01-07T23:24:59.393Z,83.09
2023-01-07T23:27:29.607Z,83.21
2023-01-07T23:29:59.859Z,83.32
2023-01-07T23:32:30.377Z,83.36
2023-01-07T23:35:00.425Z,83.29
2023-01-07T23:37:30.855Z,83.40
2023-01-07T23:40:01.417Z,83.67
2023-01-07T23:42:31.718Z,83.56
2023-01-07T23:45:03.671Z,83.57
2023-01-07T23:47:33.969Z,83.39
2023-01-07T23:50:04.086Z,83.48
2023-01-07T23:52:34.626Z,83.54
2023-01-07T23:55:06.672Z,83.53
2023-01-07T23:57:36.759Z,83.43
